sensor_id;sensor_type;location;lat;lon;timestamp;pressure;altitude;pressure_sealevel;temperature;humidity
79563;BME280;69026;50.980;11.314;2023-06-24T00:02:06;99835.50;;;23.53;54.33
79563;BME280;69026;50.980;11.314;2023-06-24T00:04:32;99836.63;;;23.52;54.19
79563;BME280;69026;50.980;11.314;2023-06-24T00:06:59;99835.81;;;23.52;53.87
79563;BME280;69026;50.980;11.314;2023-06-24T00:09:26;99834.97;;;23.51;54.24
79563;BME280;69026;50.980;11.314;2023-06-24T00:11:56;99839.69;;;23.50;54.22
79563;BME280;69026;50.980;11.314;2023-06-24T00:14:25;99834.16;;;23.50;54.23
79563;BME280;69026;50.980;11.314;2023-06-24T00:16:53;99845.22;;;23.50;53.75
79563;BME280;69026;50.980;11.314;2023-06-24T00:19:23;99842.72;;;23.49;53.88
79563;BME280;69026;50.980;11.314;2023-06-24T00:21:50;99842.72;;;23.49;54.08
79563;BME280;69026;50.980;11.314;2023-06-24T00:24:18;99837.19;;;23.49;53.86
79563;BME280;69026;50.980;11.314;2023-06-24T00:26:48;99839.97;;;23.49;53.86
79563;BME280;69026;50.980;11.314;2023-06-24T00:29:13;99845.00;;;23.47;53.50
79563;BME280;69026;50.980;11.314;2023-06-24T00:31:41;99839.44;;;23.47;53.92
79563;BME280;69026;50.980;11.314;2023-06-24T00:34:07;99843.31;;;23.46;54.00
79563;BME280;69026;50.980;11.314;2023-06-24T00:36:33;99839.44;;;23.47;53.87
79563;BME280;69026;50.980;11.314;2023-06-24T00:39:01;99834.47;;;23.44;53.49
79563;BME280;69026;50.980;11.314;2023-06-24T00:41:29;99839.19;;;23.43;53.46
79563;BME280;69026;50.980;11.314;2023-06-24T00:43:56;99836.69;;;23.42;53.73
79563;BME280;69026;50.980;11.314;2023-06-24T00:46:25;99827.28;;;23.43;53.60
79563;BME280;69026;50.980;11.314;2023-06-24T00:48:55;99832.00;;;23.42;53.68
79563;BME280;69026;50.980;11.314;2023-06-24T00:51:21;99830.28;;;23.46;53.82
79563;BME280;69026;50.980;11.314;2023-06-24T00:53:58;99835.81;;;23.52;53.67
79563;BME280;69026;50.980;11.314;2023-06-24T00:56:43;99830.50;;;23.55;53.41
79563;BME280;69026;50.980;11.314;2023-06-24T00:59:15;99835.47;;;23.58;53.31
79563;BME280;69026;50.980;11.314;2023-06-24T01:01:41;99842.06;;;23.62;53.44
79563;BME280;69026;50.980;11.314;2023-06-24T01:04:07;99844.25;;;23.65;53.13
79563;BME280;69026;50.980;11.314;2023-06-24T01:06:35;99844.81;;;23.67;53.13
79563;BME280;69026;50.980;11.314;2023-06-24T01:09:02;99838.16;;;23.68;53.04
79563;BME280;69026;50.980;11.314;2023-06-24T01:11:29;99834.78;;;23.71;52.80
79563;BME280;69026;50.980;11.314;2023-06-24T01:13:56;99830.91;;;23.73;52.48
79563;BME280;69026;50.980;11.314;2023-06-24T01:16:42;99834.53;;;23.73;52.82
79563;BME280;69026;50.980;11.314;2023-06-24T01:30:18;99819.81;;;23.78;52.24
79563;BME280;69026;50.980;11.314;2023-06-24T01:33:04;99820.34;;;23.80;52.59
79563;BME280;69026;50.980;11.314;2023-06-24T01:35:33;99810.09;;;23.80;52.39
79563;BME280;69026;50.980;11.314;2023-06-24T01:38:17;99815.06;;;23.83;52.83
79563;BME280;69026;50.980;11.314;2023-06-24T01:40:46;99809.50;;;23.83;52.62
79563;BME280;69026;50.980;11.314;2023-06-24T01:43:14;99810.91;;;23.81;52.37
79563;BME280;69026;50.980;11.314;2023-06-24T01:45:42;99810.66;;;23.77;52.12
79563;BME280;69026;50.980;11.314;2023-06-24T01:48:14;99813.75;;;23.76;51.73
79563;BME280;69026;50.980;11.314;2023-06-24T01:50:55;99816.22;;;23.72;51.76
79563;BME280;69026;50.980;11.314;2023-06-24T01:53:23;99819.31;;;23.65;52.59
79563;BME280;69026;50.980;11.314;2023-06-24T01:55:50;99812.44;;;23.63;52.29
79563;BME280;69026;50.980;11.314;2023-06-24T01:58:19;99814.38;;;23.62;52.30
79563;BME280;69026;50.980;11.314;2023-06-24T02:00:47;99813.84;;;23.60;52.30
79563;BME280;69026;50.980;11.314;2023-06-24T02:03:14;99805.31;;;23.57;52.35
79563;BME280;69026;50.980;11.314;2023-06-24T02:05:41;99804.44;;;23.56;52.14
79563;BME280;69026;50.980;11.314;2023-06-24T02:08:08;99799.50;;;23.53;52.67
79563;BME280;69026;50.980;11.314;2023-06-24T02:10:38;99800.69;;;23.47;53.13
79563;BME280;69026;50.980;11.314;2023-06-24T02:13:04;99803.97;;;23.49;53.63
79563;BME280;69026;50.980;11.314;2023-06-24T02:15:30;99794.84;;;23.48;53.42
79563;BME280;69026;50.980;11.314;2023-06-24T02:17:57;99795.66;;;23.49;53.80
79563;BME280;69026;50.980;11.314;2023-06-24T02:20:25;99794.00;;;23.48;54.24
79563;BME280;69026;50.980;11.314;2023-06-24T02:22:56;99787.34;;;23.49;54.22
79563;BME280;69026;50.980;11.314;2023-06-24T02:25:24;99793.75;;;23.49;54.00
79563;BME280;69026;50.980;11.314;2023-06-24T02:27:52;99781.53;;;23.50;54.58
79563;BME280;69026;50.980;11.314;2023-06-24T02:30:20;99781.53;;;23.50;54.16
79563;BME280;69026;50.980;11.314;2023-06-24T02:32:46;99789.00;;;23.50;54.49
79563;BME280;69026;50.980;11.314;2023-06-24T02:35:12;99785.13;;;23.51;54.25
79563;BME280;69026;50.980;11.314;2023-06-24T02:37:37;99789.00;;;23.50;54.14
79563;BME280;69026;50.980;11.314;2023-06-24T02:40:04;99789.84;;;23.50;54.63
79563;BME280;69026;50.980;11.314;2023-06-24T02:42:31;99788.19;;;23.49;54.61
79563;BME280;69026;50.980;11.314;2023-06-24T02:44:59;99790.13;;;23.49;54.16
79563;BME280;69026;50.980;11.314;2023-06-24T02:47:26;99787.34;;;23.49;54.46
79563;BME280;69026;50.980;11.314;2023-06-24T02:49:52;99788.47;;;23.48;54.67
79563;BME280;69026;50.980;11.314;2023-06-24T02:52:20;99787.34;;;23.49;54.13
79563;BME280;69026;50.980;11.314;2023-06-24T02:54:46;99797.59;;;23.48;54.70
79563;BME280;69026;50.980;11.314;2023-06-24T02:57:34;99791.25;;;23.48;54.21
79563;BME280;69026;50.980;11.314;2023-06-24T03:00:22;99796.25;;;23.46;54.63
79563;BME280;69026;50.980;11.314;2023-06-24T03:03:07;99804.56;;;23.46;54.42
79563;BME280;69026;50.980;11.314;2023-06-24T03:05:35;99800.97;;;23.45;54.37
79563;BME280;69026;50.980;11.314;2023-06-24T03:08:02;99794.88;;;23.43;54.74
79563;BME280;69026;50.980;11.314;2023-06-24T03:10:30;99805.13;;;23.43;54.51
79563;BME280;69026;50.980;11.314;2023-06-24T03:12:56;99801.28;;;23.39;54.48
79563;BME280;69026;50.980;11.314;2023-06-24T03:15:29;99804.59;;;23.41;54.11
79563;BME280;69026;50.980;11.314;2023-06-24T03:17:56;99802.41;;;23.38;54.37
79563;BME280;69026;50.980;11.314;2023-06-24T03:20:22;99802.41;;;23.38;53.92
79563;BME280;69026;50.980;11.314;2023-06-24T03:22:50;99804.66;;;23.36;54.03
79563;BME280;69026;50.980;11.314;2023-06-24T03:25:18;99802.97;;;23.35;54.38
79563;BME280;69026;50.980;11.314;2023-06-24T03:27:44;99808.50;;;23.35;54.06
79563;BME280;69026;50.980;11.314;2023-06-24T03:30:11;99811.28;;;23.35;54.09
79563;BME280;69026;50.980;11.314;2023-06-24T03:32:41;99818.78;;;23.34;54.01
79563;BME280;69026;50.980;11.314;2023-06-24T03:35:13;99816.31;;;23.33;53.66
79563;BME280;69026;50.980;11.314;2023-06-24T03:37:39;99821.84;;;23.33;53.61
79563;BME280;69026;50.980;11.314;2023-06-24T03:40:06;99828.19;;;23.33;53.68
79563;BME280;69026;50.980;11.314;2023-06-24T03:42:32;99829.84;;;23.34;53.81
79563;BME280;69026;50.980;11.314;2023-06-24T03:44:58;99828.19;;;23.33;53.46
79563;BME280;69026;50.980;11.314;2023-06-24T03:47:24;99830.16;;;23.33;53.82
79563;BME280;69026;50.980;11.314;2023-06-24T03:49:49;99835.69;;;23.33;53.78
79563;BME280;69026;50.980;11.314;2023-06-24T03:52:17;99828.19;;;23.33;54.46
79563;BME280;69026;50.980;11.314;2023-06-24T03:54:44;99840.09;;;23.34;54.32
79563;BME280;69026;50.980;11.314;2023-06-24T03:57:10;99834.56;;;23.34;53.89
79563;BME280;69026;50.980;11.314;2023-06-24T03:59:36;99836.19;;;23.35;53.88
79563;BME280;69026;50.980;11.314;2023-06-24T04:02:02;99836.75;;;23.37;53.90
79563;BME280;69026;50.980;11.314;2023-06-24T04:04:28;99840.38;;;23.37;54.11
79563;BME280;69026;50.980;11.314;2023-06-24T04:06:55;99845.91;;;23.37;53.90
79563;BME280;69026;50.980;11.314;2023-06-24T04:09:20;99851.94;;;23.39;53.90
79563;BME280;69026;50.980;11.314;2023-06-24T04:11:47;99855.84;;;23.38;54.47
79563;BME280;69026;50.980;11.314;2023-06-24T04:14:13;99850.03;;;23.40;54.13
79563;BME280;69026;50.980;11.314;2023-06-24T04:16:39;99853.91;;;23.39;54.38
79563;BME280;69026;50.980;11.314;2023-06-24T04:19:07;99851.66;;;23.41;53.91
79563;BME280;69026;50.980;11.314;2023-06-24T04:21:33;99845.31;;;23.40;54.21
79563;BME280;69026;50.980;11.314;2023-06-24T04:23:59;99848.91;;;23.41;54.12
79563;BME280;69026;50.980;11.314;2023-06-24T04:26:25;99854.16;;;23.42;54.01
79563;BME280;69026;50.980;11.314;2023-06-24T04:28:51;99845.84;;;23.42;54.06
79563;BME280;69026;50.980;11.314;2023-06-24T04:31:17;99852.22;;;23.43;53.90
79563;BME280;69026;50.980;11.314;2023-06-24T04:33:43;99861.34;;;23.43;54.29
79563;BME280;69026;50.980;11.314;2023-06-24T04:36:08;99860.53;;;23.43;54.33
79563;BME280;69026;50.980;11.314;2023-06-24T04:38:35;99866.06;;;23.43;54.37
79563;BME280;69026;50.980;11.314;2023-06-24T04:41:01;99863.28;;;23.43;54.19
79563;BME280;69026;50.980;11.314;2023-06-24T04:43:27;99873.53;;;23.42;53.88
79563;BME280;69026;50.980;11.314;2023-06-24T04:45:56;99859.69;;;23.42;53.92
79563;BME280;69026;50.980;11.314;2023-06-24T04:48:26;99868.28;;;23.41;53.84
79563;BME280;69026;50.980;11.314;2023-06-24T04:50:52;99864.38;;;23.42;53.80
79563;BME280;69026;50.980;11.314;2023-06-24T04:53:20;99869.94;;;23.42;54.33
79563;BME280;69026;50.980;11.314;2023-06-24T04:55:46;99862.16;;;23.44;53.98
79563;BME280;69026;50.980;11.314;2023-06-24T04:58:12;99873.22;;;23.44;54.07
79563;BME280;69026;50.980;11.314;2023-06-24T05:00:38;99877.69;;;23.45;53.99
79563;BME280;69026;50.980;11.314;2023-06-24T05:03:04;99882.09;;;23.46;54.28
79563;BME280;69026;50.980;11.314;2023-06-24T05:05:30;99879.03;;;23.47;54.47
79563;BME280;69026;50.980;11.314;2023-06-24T05:07:56;99881.50;;;23.49;53.79
79563;BME280;69026;50.980;11.314;2023-06-24T05:10:22;99893.13;;;23.51;53.85
79563;BME280;69026;50.980;11.314;2023-06-24T05:12:48;99885.06;;;23.55;54.22
79563;BME280;69026;50.980;11.314;2023-06-24T05:15:13;99885.91;;;23.55;53.96
79563;BME280;69026;50.980;11.314;2023-06-24T05:17:39;99888.38;;;23.57;54.21
79563;BME280;69026;50.980;11.314;2023-06-24T05:20:06;99883.66;;;23.57;53.99
79563;BME280;69026;50.980;11.314;2023-06-24T05:22:32;99892.53;;;23.59;53.94
79563;BME280;69026;50.980;11.314;2023-06-24T05:24:57;99898.06;;;23.59;54.17
79563;BME280;69026;50.980;11.314;2023-06-24T05:27:23;99893.88;;;23.62;54.26
79563;BME280;69026;50.980;11.314;2023-06-24T05:29:49;99903.84;;;23.63;53.75
79563;BME280;69026;50.980;11.314;2023-06-24T05:32:15;99899.16;;;23.63;53.73
79563;BME280;69026;50.980;11.314;2023-06-24T05:34:43;99893.59;;;23.63;54.28
79563;BME280;69026;50.980;11.314;2023-06-24T05:37:09;99906.31;;;23.64;54.20
79563;BME280;69026;50.980;11.314;2023-06-24T05:39:34;99903.56;;;23.64;54.36
79563;BME280;69026;50.980;11.314;2023-06-24T05:42:00;99892.19;;;23.66;54.24
79563;BME280;69026;50.980;11.314;2023-06-24T05:44:26;99898.56;;;23.66;53.89
79563;BME280;69026;50.980;11.314;2023-06-24T05:46:52;99897.75;;;23.66;54.51
79563;BME280;69026;50.980;11.314;2023-06-24T05:49:17;99895.78;;;23.66;54.45
79563;BME280;69026;50.980;11.314;2023-06-24T05:51:43;99901.56;;;23.70;54.44
79563;BME280;69026;50.980;11.314;2023-06-24T05:54:09;99899.66;;;23.70;53.76
79563;BME280;69026;50.980;11.314;2023-06-24T05:56:35;99900.16;;;23.73;54.23
79563;BME280;69026;50.980;11.314;2023-06-24T05:59:02;99895.75;;;23.71;54.11
79563;BME280;69026;50.980;11.314;2023-06-24T06:01:27;99899.63;;;23.76;53.91
79563;BME280;69026;50.980;11.314;2023-06-24T06:03:53;99897.41;;;23.78;54.28
79563;BME280;69026;50.980;11.314;2023-06-24T06:06:19;99894.63;;;23.78;54.39
79563;BME280;69026;50.980;11.314;2023-06-24T06:08:45;99896.28;;;23.79;54.10
79563;BME280;69026;50.980;11.314;2023-06-24T06:11:10;99902.34;;;23.81;53.93
79563;BME280;69026;50.980;11.314;2023-06-24T06:13:36;99901.22;;;23.82;54.16
79563;BME280;69026;50.980;11.314;2023-06-24T06:16:02;99909.53;;;23.82;53.94
79563;BME280;69026;50.980;11.314;2023-06-24T06:18:28;99913.13;;;23.82;54.06
79563;BME280;69026;50.980;11.314;2023-06-24T06:20:54;99916.44;;;23.84;54.10
79563;BME280;69026;50.980;11.314;2023-06-24T06:23:19;99918.94;;;23.86;54.18
79563;BME280;69026;50.980;11.314;2023-06-24T06:25:45;99912.56;;;23.85;54.26
79563;BME280;69026;50.980;11.314;2023-06-24T06:28:11;99916.97;;;23.86;54.14
79563;BME280;69026;50.980;11.314;2023-06-24T06:30:38;99920.56;;;23.87;54.27
79563;BME280;69026;50.980;11.314;2023-06-24T06:33:03;99917.53;;;23.88;54.29
79563;BME280;69026;50.980;11.314;2023-06-24T06:35:29;99915.56;;;23.89;53.92
79563;BME280;69026;50.980;11.314;2023-06-24T06:37:57;99903.38;;;23.90;53.88
79563;BME280;69026;50.980;11.314;2023-06-24T06:40:23;99906.97;;;23.90;53.67
79563;BME280;69026;50.980;11.314;2023-06-24T06:42:49;99901.97;;;23.92;53.45
79563;BME280;69026;50.980;11.314;2023-06-24T06:45:16;99901.66;;;23.94;53.24
79563;BME280;69026;50.980;11.314;2023-06-24T06:47:41;99895.03;;;23.95;53.12
79563;BME280;69026;50.980;11.314;2023-06-24T06:50:07;99902.19;;;23.96;53.46
79563;BME280;69026;50.980;11.314;2023-06-24T06:52:33;99909.41;;;23.97;53.12
79563;BME280;69026;50.980;11.314;2023-06-24T06:54:59;99907.19;;;23.99;52.93
79563;BME280;69026;50.980;11.314;2023-06-24T06:57:25;99908.81;;;24.00;53.35
79563;BME280;69026;50.980;11.314;2023-06-24T06:59:51;99908.22;;;24.03;52.92
79563;BME280;69026;50.980;11.314;2023-06-24T07:02:18;99909.91;;;24.04;52.97
79563;BME280;69026;50.980;11.314;2023-06-24T07:04:44;99917.09;;;24.05;52.47
79563;BME280;69026;50.980;11.314;2023-06-24T07:07:10;99919.59;;;24.07;53.04
79563;BME280;69026;50.980;11.314;2023-06-24T07:09:37;99916.53;;;24.08;52.39
79563;BME280;69026;50.980;11.314;2023-06-24T07:12:03;99923.72;;;24.09;51.92
79563;BME280;69026;50.980;11.314;2023-06-24T07:14:29;99927.03;;;24.11;51.70
79563;BME280;69026;50.980;11.314;2023-06-24T07:16:54;99927.84;;;24.12;51.82
79563;BME280;69026;50.980;11.314;2023-06-24T07:19:20;99921.47;;;24.11;51.75
79563;BME280;69026;50.980;11.314;2023-06-24T07:21:46;99920.06;;;24.14;51.83
79563;BME280;69026;50.980;11.314;2023-06-24T07:24:12;99924.19;;;24.17;51.54
79563;BME280;69026;50.980;11.314;2023-06-24T07:26:37;99919.47;;;24.17;51.92
79563;BME280;69026;50.980;11.314;2023-06-24T07:29:06;99910.88;;;24.19;51.77
79563;BME280;69026;50.980;11.314;2023-06-24T07:31:32;99913.66;;;24.19;51.13
79563;BME280;69026;50.980;11.314;2023-06-24T07:33:58;99920.56;;;24.21;51.45
79563;BME280;69026;50.980;11.314;2023-06-24T07:36:24;99922.19;;;24.22;51.69
79563;BME280;69026;50.980;11.314;2023-06-24T07:38:50;99924.69;;;24.24;51.61
79563;BME280;69026;50.980;11.314;2023-06-24T07:41:15;99929.09;;;24.25;51.57
79563;BME280;69026;50.980;11.314;2023-06-24T07:43:41;99916.91;;;24.26;51.38
79563;BME280;69026;50.980;11.314;2023-06-24T07:46:07;99923.28;;;24.26;51.60
79563;BME280;69026;50.980;11.314;2023-06-24T07:48:33;99925.75;;;24.28;51.63
79563;BME280;69026;50.980;11.314;2023-06-24T07:50:59;99931.84;;;24.30;51.08
79563;BME280;69026;50.980;11.314;2023-06-24T07:53:24;99923.53;;;24.30;51.10
79563;BME280;69026;50.980;11.314;2023-06-24T07:55:50;99926.81;;;24.32;51.12
79563;BME280;69026;50.980;11.314;2023-06-24T07:58:16;99922.94;;;24.33;50.92
79563;BME280;69026;50.980;11.314;2023-06-24T08:00:42;99913.47;;;24.34;50.97
79563;BME280;69026;50.980;11.314;2023-06-24T08:03:08;99916.78;;;24.36;50.45
79563;BME280;69026;50.980;11.314;2023-06-24T08:05:33;99922.06;;;24.38;49.87
79563;BME280;69026;50.980;11.314;2023-06-24T08:07:59;99923.41;;;24.40;49.92
79563;BME280;69026;50.980;11.314;2023-06-24T08:10:25;99925.06;;;24.41;49.99
79563;BME280;69026;50.980;11.314;2023-06-24T08:12:51;99926.72;;;24.42;49.18
79563;BME280;69026;50.980;11.314;2023-06-24T08:15:17;99920.56;;;24.45;49.16
79563;BME280;69026;50.980;11.314;2023-06-24T08:17:42;99918.38;;;24.47;49.18
79563;BME280;69026;50.980;11.314;2023-06-24T08:20:09;99924.13;;;24.51;48.56
79563;BME280;69026;50.980;11.314;2023-06-24T08:22:35;99923.03;;;24.52;48.92
79563;BME280;69026;50.980;11.314;2023-06-24T08:25:00;99918.84;;;24.54;48.91
79563;BME280;69026;50.980;11.314;2023-06-24T08:27:26;99922.16;;;24.57;48.49
79563;BME280;69026;50.980;11.314;2023-06-24T08:29:52;99912.69;;;24.58;48.42
79563;BME280;69026;50.980;11.314;2023-06-24T08:32:18;99910.47;;;24.60;48.51
79563;BME280;69026;50.980;11.314;2023-06-24T08:34:43;99907.41;;;24.61;48.41
79563;BME280;69026;50.980;11.314;2023-06-24T08:37:09;99909.88;;;24.63;48.33
79563;BME280;69026;50.980;11.314;2023-06-24T08:39:35;99905.97;;;24.64;48.50
79563;BME280;69026;50.980;11.314;2023-06-24T08:42:02;99902.06;;;24.65;48.44
79563;BME280;69026;50.980;11.314;2023-06-24T08:44:28;99904.28;;;24.68;48.92
79563;BME280;69026;50.980;11.314;2023-06-24T08:46:54;99907.56;;;24.70;48.20
79563;BME280;69026;50.980;11.314;2023-06-24T08:52:08;99908.09;;;24.72;48.27
79563;BME280;69026;50.980;11.314;2023-06-24T08:54:37;99911.41;;;24.74;47.98
79563;BME280;69026;50.980;11.314;2023-06-24T08:57:04;99910.28;;;24.75;48.17
79563;BME280;69026;50.980;11.314;2023-06-24T08:59:33;99909.16;;;24.76;47.81
79563;BME280;69026;50.980;11.314;2023-06-24T09:02:00;99913.28;;;24.79;47.93
79563;BME280;69026;50.980;11.314;2023-06-24T09:04:25;99906.09;;;24.78;48.12
79563;BME280;69026;50.980;11.314;2023-06-24T09:06:51;99897.47;;;24.79;48.19
79563;BME280;69026;50.980;11.314;2023-06-24T09:09:23;99912.19;;;24.80;47.78
79563;BME280;69026;50.980;11.314;2023-06-24T09:11:53;99900.75;;;24.81;47.75
79563;BME280;69026;50.980;11.314;2023-06-24T09:14:20;99904.06;;;24.83;47.63
79563;BME280;69026;50.980;11.314;2023-06-24T09:16:57;99908.50;;;24.84;47.76
79563;BME280;69026;50.980;11.314;2023-06-24T09:19:25;99901.84;;;24.85;47.34
79563;BME280;69026;50.980;11.314;2023-06-24T09:22:05;99899.59;;;24.87;47.31
79563;BME280;69026;50.980;11.314;2023-06-24T09:24:32;99905.16;;;24.87;47.50
79563;BME280;69026;50.980;11.314;2023-06-24T09:26:58;99905.69;;;24.89;47.18
79563;BME280;69026;50.980;11.314;2023-06-24T09:29:31;99907.31;;;24.90;46.85
79563;BME280;69026;50.980;11.314;2023-06-24T09:31:57;99902.28;;;24.92;47.34
79563;BME280;69026;50.980;11.314;2023-06-24T09:34:28;99904.78;;;24.94;46.83
79563;BME280;69026;50.980;11.314;2023-06-24T09:36:56;99898.63;;;24.97;47.24
79563;BME280;69026;50.980;11.314;2023-06-24T09:39:23;99902.75;;;25.00;46.69
79563;BME280;69026;50.980;11.314;2023-06-24T09:41:59;99896.06;;;25.01;47.18
79563;BME280;69026;50.980;11.314;2023-06-24T09:44:27;99902.16;;;25.03;46.76
79563;BME280;69026;50.980;11.314;2023-06-24T09:46:54;99902.16;;;25.03;46.80
79563;BME280;69026;50.980;11.314;2023-06-24T09:49:21;99907.13;;;25.06;46.64
79563;BME280;69026;50.980;11.314;2023-06-24T09:51:49;99899.91;;;25.05;46.83
79563;BME280;69026;50.980;11.314;2023-06-24T09:54:16;99903.22;;;25.07;46.23
79563;BME280;69026;50.980;11.314;2023-06-24T09:56:51;99897.66;;;25.07;46.18
79563;BME280;69026;50.980;11.314;2023-06-24T09:59:20;99888.19;;;25.08;46.68
79563;BME280;69026;50.980;11.314;2023-06-24T10:01:47;99892.66;;;25.09;46.22
79563;BME280;69026;50.980;11.314;2023-06-24T10:04:17;99885.94;;;25.10;46.06
79563;BME280;69026;50.980;11.314;2023-06-24T10:06:44;99884.84;;;25.11;45.95
79563;BME280;69026;50.980;11.314;2023-06-24T10:09:10;99890.94;;;25.13;46.09
79563;BME280;69026;50.980;11.314;2023-06-24T10:11:39;99883.41;;;25.13;46.37
79563;BME280;69026;50.980;11.314;2023-06-24T10:14:05;99884.75;;;25.16;45.97
79563;BME280;69026;50.980;11.314;2023-06-24T10:16:31;99886.41;;;25.17;45.82
79563;BME280;69026;50.980;11.314;2023-06-24T10:19:01;99882.56;;;25.18;46.05
79563;BME280;69026;50.980;11.314;2023-06-24T10:21:50;99890.56;;;25.20;46.37
79563;BME280;69026;50.980;11.314;2023-06-24T10:27:00;99879.47;;;25.20;45.41
79563;BME280;69026;50.980;11.314;2023-06-24T10:29:39;99881.94;;;25.21;45.40
79563;BME280;69026;50.980;11.314;2023-06-24T10:32:09;99889.13;;;25.22;45.86
79563;BME280;69026;50.980;11.314;2023-06-24T10:34:45;99882.47;;;25.23;45.44
79563;BME280;69026;50.980;11.314;2023-06-24T10:39:57;99878.56;;;25.24;45.67
79563;BME280;69026;50.980;11.314;2023-06-24T10:44:59;99875.19;;;25.27;45.24
79563;BME280;69026;50.980;11.314;2023-06-24T10:47:27;99874.06;;;25.28;45.66
79563;BME280;69026;50.980;11.314;2023-06-24T10:49:53;99872.91;;;25.29;45.52
79563;BME280;69026;50.980;11.314;2023-06-24T10:52:20;99881.25;;;25.29;45.90
79563;BME280;69026;50.980;11.314;2023-06-24T10:54:50;99879.00;;;25.31;45.71
79563;BME280;69026;50.980;11.314;2023-06-24T10:57:21;99868.44;;;25.33;45.49
79563;BME280;69026;50.980;11.314;2023-06-24T10:59:48;99864.00;;;25.32;46.13
79563;BME280;69026;50.980;11.314;2023-06-24T11:02:16;99875.66;;;25.34;46.04
79563;BME280;69026;50.980;11.314;2023-06-24T11:04:50;99867.00;;;25.36;45.45
79563;BME280;69026;50.980;11.314;2023-06-24T11:07:18;99861.44;;;25.36;45.31
79563;BME280;69026;50.980;11.314;2023-06-24T11:10:09;99859.19;;;25.38;45.71
79563;BME280;69026;50.980;11.314;2023-06-24T11:12:36;99854.44;;;25.38;45.70
79563;BME280;69026;50.980;11.314;2023-06-24T11:15:05;99860.84;;;25.39;45.20
79563;BME280;69026;50.980;11.314;2023-06-24T11:17:33;99854.44;;;25.38;45.42
79563;BME280;69026;50.980;11.314;2023-06-24T11:19:59;99851.16;;;25.36;45.39
79563;BME280;69026;50.980;11.314;2023-06-24T11:22:26;99852.81;;;25.37;45.48
79563;BME280;69026;50.980;11.314;2023-06-24T11:24:52;99841.72;;;25.37;45.55
79563;BME280;69026;50.980;11.314;2023-06-24T11:27:26;99842.53;;;25.38;45.86
79563;BME280;69026;50.980;11.314;2023-06-24T11:29:54;99848.09;;;25.38;45.93
79563;BME280;69026;50.980;11.314;2023-06-24T11:32:20;99836.16;;;25.37;45.40
79563;BME280;69026;50.980;11.314;2023-06-24T11:34:47;99832.22;;;25.38;45.82
79563;BME280;69026;50.980;11.314;2023-06-24T11:37:15;99831.94;;;25.40;45.92
79563;BME280;69026;50.980;11.314;2023-06-24T11:39:42;99826.09;;;25.42;45.95
79563;BME280;69026;50.980;11.314;2023-06-24T11:42:09;99827.72;;;25.43;45.79
79563;BME280;69026;50.980;11.314;2023-06-24T11:44:35;99823.81;;;25.44;45.63
79563;BME280;69026;50.980;11.314;2023-06-24T11:47:08;99824.94;;;25.43;46.10
79563;BME280;69026;50.980;11.314;2023-06-24T11:49:55;99822.19;;;25.43;46.32
79563;BME280;69026;50.980;11.314;2023-06-24T11:52:41;99819.09;;;25.44;45.79
79563;BME280;69026;50.980;11.314;2023-06-24T11:58:03;99818.25;;;25.44;45.90
79563;BME280;69026;50.980;11.314;2023-06-24T12:00:33;99817.97;;;25.45;45.85
79563;BME280;69026;50.980;11.314;2023-06-24T12:03:02;99818.25;;;25.44;45.85
79563;BME280;69026;50.980;11.314;2023-06-24T12:05:30;99819.94;;;25.45;45.67
79563;BME280;69026;50.980;11.314;2023-06-24T12:08:00;99816.00;;;25.46;44.36
79563;BME280;69026;50.980;11.314;2023-06-24T12:10:27;99820.13;;;25.48;45.16
79563;BME280;69026;50.980;11.314;2023-06-24T12:12:56;99806.56;;;25.47;45.13
79563;BME280;69026;50.980;11.314;2023-06-24T12:15:22;99811.50;;;25.50;45.01
79563;BME280;69026;50.980;11.314;2023-06-24T12:17:48;99815.41;;;25.49;45.07
79563;BME280;69026;50.980;11.314;2023-06-24T12:20:14;99809.88;;;25.49;44.54
79563;BME280;69026;50.980;11.314;2023-06-24T12:22:41;99804.31;;;25.49;45.01
79563;BME280;69026;50.980;11.314;2023-06-24T12:25:07;99805.94;;;25.50;45.18
79563;BME280;69026;50.980;11.314;2023-06-24T12:27:34;99800.38;;;25.50;44.98
79563;BME280;69026;50.980;11.314;2023-06-24T12:30:00;99798.75;;;25.49;44.80
79563;BME280;69026;50.980;11.314;2023-06-24T12:32:26;99798.75;;;25.49;45.10
79563;BME280;69026;50.980;11.314;2023-06-24T12:34:52;99794.84;;;25.50;45.10
79563;BME280;69026;50.980;11.314;2023-06-24T12:37:19;99794.84;;;25.50;44.91
79563;BME280;69026;50.980;11.314;2023-06-24T12:39:45;99793.72;;;25.51;45.09
79563;BME280;69026;50.980;11.314;2023-06-24T12:42:11;99790.09;;;25.50;45.29
79563;BME280;69026;50.980;11.314;2023-06-24T12:44:37;99786.50;;;25.50;45.12
79563;BME280;69026;50.980;11.314;2023-06-24T12:47:03;99792.34;;;25.48;44.52
79563;BME280;69026;50.980;11.314;2023-06-24T12:49:28;99788.22;;;25.46;44.81
79563;BME280;69026;50.980;11.314;2023-06-24T12:51:54;99786.59;;;25.45;44.97
79563;BME280;69026;50.980;11.314;2023-06-24T12:54:20;99788.75;;;25.48;44.93
79563;BME280;69026;50.980;11.314;2023-06-24T12:56:46;99782.00;;;25.54;43.85
79563;BME280;69026;50.980;11.314;2023-06-24T12:59:11;99781.66;;;25.55;45.14
79563;BME280;69026;50.980;11.314;2023-06-24T13:01:38;99787.97;;;25.61;44.83
79563;BME280;69026;50.980;11.314;2023-06-24T13:04:03;99782.50;;;25.56;45.18
79563;BME280;69026;50.980;11.314;2023-06-24T13:06:29;99782.00;;;25.54;44.96
79563;BME280;69026;50.980;11.314;2023-06-24T13:08:55;99779.50;;;25.52;44.83
79563;BME280;69026;50.980;11.314;2023-06-24T13:11:21;99776.72;;;25.52;44.57
79563;BME280;69026;50.980;11.314;2023-06-24T13:13:47;99770.34;;;25.52;44.72
79563;BME280;69026;50.980;11.314;2023-06-24T13:16:12;99767.28;;;25.53;44.14
79563;BME280;69026;50.980;11.314;2023-06-24T13:18:38;99766.16;;;25.54;44.80